Terminal Aerodrome Forecast
Issued by NWS Charleston, SC

Home | Current Version | Previous Version | Text Only | Print | Product List | Glossary On
Versions: 1 2 3 4 5 6 7 8 9 10 11 12 13 14 15 16 17 18 19 20
980
FTUS42 KCHS 291514 AAB
TAFSAV
TAF AMD
KSAV 291514Z 2915/3012 32020G30KT 3SM RA BKN008 BKN012 OVC025
      TEMPO 2915/2917 1SM +RA BKN007 BKN012
     FM291800 32010G17KT P6SM VCSH SCT008 BKN015
     FM292100 30007KT P6SM BKN035=

USA.gov is the U.S. government's official web portal to all federal, state and local government web resources and services.